Time;durP1;ratioP1;P1;durP2;ratioP2;P2;SDS_P1;SDS_P2;PMS_P1;PMS_P2;Temp;Humidity;BMP_temperature;BMP_pressure;BME280_temperature;BME280_humidity;BME280_pressure;Samples;Min_cycle;Max_cycle;Signal;HPM_P1;HPM_P2
2022/01/17 00:02:19;;;;;;;13.65;9.05;;;;;;;1.34;78.26;98281.61;1713476;82;21006;-57
2022/01/17 00:04:47;;;;;;;16.45;9.35;;;;;;;1.31;78.02;98286.87;1713072;82;21014;-57
2022/01/17 00:07:15;;;;;;;17.27;8.03;;;;;;;1.32;78.20;98279.68;1713796;82;20940;-57
2022/01/17 00:09:42;;;;;;;14.93;9.03;;;;;;;1.30;78.68;98276.41;1722599;82;20993;-57
2022/01/17 00:12:10;;;;;;;19.17;8.83;;;;;;;1.29;78.08;98268.92;1737964;82;21466;-56
2022/01/17 00:14:40;;;;;;;12.73;6.97;;;;;;;1.29;78.50;98268.10;1737870;82;21409;-57
2022/01/17 00:17:29;;;;;;;17.90;8.55;;;;;;;1.32;78.72;98256.47;1737785;82;21615;-57
2022/01/17 00:19:45;;;;;;;9.45;5.90;;;;;;;1.22;79.62;98258.79;1734666;82;21041;-57
2022/01/17 00:22:13;;;;;;;12.90;7.20;;;;;;;1.29;78.94;98244.89;1738114;82;20973;-57
2022/01/17 00:24:41;;;;;;;15.75;7.83;;;;;;;1.24;79.25;98252.71;1737477;82;39299;-57
2022/01/17 00:27:08;;;;;;;13.32;7.80;;;;;;;1.26;79.27;98250.64;1737824;82;21064;-57
2022/01/17 00:29:35;;;;;;;12.37;7.58;;;;;;;1.26;79.33;98256.50;1737703;82;21476;-57
2022/01/17 00:32:04;;;;;;;16.05;7.62;;;;;;;1.28;79.38;98241.08;1737674;82;21402;-57
2022/01/17 00:34:31;;;;;;;17.67;8.73;;;;;;;1.28;79.30;98246.41;1730368;82;20987;-57
2022/01/17 00:36:58;;;;;;;11.90;6.03;;;;;;;1.30;79.51;98231.02;1713084;82;21554;-57
2022/01/17 00:39:25;;;;;;;15.32;8.10;;;;;;;1.32;79.45;98236.44;1713120;82;20968;-57
2022/01/17 00:41:52;;;;;;;14.10;7.97;;;;;;;1.30;79.36;98238.52;1713242;82;20984;-57
2022/01/17 00:44:23;;;;;;;13.68;8.23;;;;;;;1.32;79.78;98235.11;1723680;82;21071;-57
2022/01/17 00:46:51;;;;;;;12.25;7.60;;;;;;;1.34;79.71;98241.04;1737690;82;20992;-57
2022/01/17 00:49:19;;;;;;;14.07;8.25;;;;;;;1.34;79.75;98241.56;1737875;82;21556;-57
2022/01/17 00:51:47;;;;;;;12.05;6.70;;;;;;;1.34;80.05;98239.70;1737911;82;21394;-57
2022/01/17 00:54:14;;;;;;;11.93;7.30;;;;;;;1.32;80.20;98235.63;1733308;82;21074;-57
2022/01/17 00:56:40;;;;;;;10.53;6.90;;;;;;;1.31;80.29;98232.13;1713168;82;21054;-57
2022/01/17 00:59:07;;;;;;;12.60;6.80;;;;;;;1.32;79.98;98231.09;1721779;82;21036;-57
2022/01/17 01:01:34;;;;;;;10.23;5.62;;;;;;;1.38;80.35;98229.43;1719009;82;21363;-57
2022/01/17 01:04:01;;;;;;;10.82;5.67;;;;;;;1.34;80.23;98223.69;1718106;82;21500;-57
2022/01/17 01:06:30;;;;;;;11.85;6.83;;;;;;;1.36;80.71;98228.28;1731087;82;21013;-57
2022/01/17 01:08:57;;;;;;;11.97;6.80;;;;;;;1.33;80.72;98224.72;1737952;82;21447;-56
2022/01/17 01:11:24;;;;;;;15.08;7.47;;;;;;;1.33;80.83;98218.56;1720579;82;21408;-57
2022/01/17 01:13:51;;;;;;;11.25;5.97;;;;;;;1.33;81.08;98215.89;1713160;82;21440;-57
2022/01/17 01:21:44;;;;;;;9.88;5.85;;;;;;;1.35;80.96;98220.50;1737786;82;21004;-58
2022/01/17 01:29:09;;;;;;;8.48;4.97;;;;;;;1.33;81.46;98199.88;1741128;82;21383;-58
2022/01/17 01:31:43;;;;;;;7.90;4.85;;;;;;;1.31;81.56;98189.94;1737756;82;21522;-58
2022/01/17 01:34:06;;;;;;;8.93;5.35;;;;;;;1.32;81.81;98192.91;1728967;82;21015;-58
2022/01/17 01:36:34;;;;;;;7.53;5.30;;;;;;;1.29;81.94;98180.81;1732104;82;21048;-58
2022/01/17 01:39:03;;;;;;;7.92;5.10;;;;;;;1.32;81.82;98176.88;1737952;82;21399;-58
2022/01/17 01:41:39;;;;;;;;;;;;;;;1.39;81.79;98179.81;1740373;82;21034;-58
2022/01/17 01:44:07;;;;;;;8.03;4.35;;;;;;;1.33;82.18;98179.33;1737694;82;20190;-57
2022/01/17 01:46:34;;;;;;;7.35;4.78;;;;;;;1.34;81.78;98175.62;1691631;83;20982;-58
2022/01/17 01:49:01;;;;;;;6.72;4.95;;;;;;;1.36;82.00;98182.89;1718848;82;21536;-58
2022/01/17 01:51:28;;;;;;;6.60;3.90;;;;;;;1.37;82.17;98175.20;1719791;82;21395;-58
2022/01/17 01:53:55;;;;;;;5.67;4.10;;;;;;;1.41;82.02;98172.39;1714402;82;20967;-58
2022/01/17 01:56:22;;;;;;;6.15;3.98;;;;;;;1.40;82.15;98159.27;1737831;82;20985;-58
2022/01/17 01:58:48;;;;;;;6.35;3.95;;;;;;;1.40;82.13;98162.75;1732532;82;21500;-58
2022/01/17 02:01:15;;;;;;;6.65;4.00;;;;;;;1.40;82.21;98156.07;1728933;82;21347;-58
2022/01/17 02:03:42;;;;;;;6.87;4.45;;;;;;;1.42;82.22;98153.18;1737804;82;21410;-57
2022/01/17 02:06:09;;;;;;;7.70;4.17;;;;;;;1.41;82.47;98145.69;1737761;82;20977;-58
2022/01/17 02:08:36;;;;;;;8.25;4.67;;;;;;;1.43;82.29;98143.31;1738076;82;21024;-58
2022/01/17 02:11:03;;;;;;;5.37;3.45;;;;;;;1.46;82.42;98133.55;1723922;82;21693;-58
2022/01/17 02:13:30;;;;;;;5.25;3.35;;;;;;;1.47;82.21;98128.51;1713258;82;21627;-57
2022/01/17 02:16:04;;;;;;;6.87;3.40;;;;;;;1.49;81.91;98123.23;1690500;83;21426;-58
2022/01/17 02:18:31;;;;;;;6.70;4.10;;;;;;;1.50;82.15;98108.84;1713488;82;20988;-58
2022/01/17 02:23:40;;;;;;;6.67;3.90;;;;;;;1.58;81.71;98117.91;1713369;82;21022;-58
2022/01/17 02:26:07;;;;;;;7.92;4.08;;;;;;;1.53;81.71;98117.74;1731056;82;21464;-58
2022/01/17 02:28:36;;;;;;;7.42;4.95;;;;;;;1.57;81.63;98113.61;1737835;82;21317;-57
2022/01/17 02:31:05;;;;;;;10.18;7.03;;;;;;;1.57;81.62;98114.95;1737788;82;21008;-58
2022/01/17 02:33:35;;;;;;;6.75;4.75;;;;;;;1.59;81.45;98116.05;1735673;82;25899;-58
2022/01/17 02:36:03;;;;;;;11.35;5.95;;;;;;;1.60;81.29;98099.80;1713012;82;21432;-58
2022/01/17 02:38:29;;;;;;;5.78;3.65;;;;;;;1.60;81.35;98103.00;1715361;82;20976;-58
2022/01/17 02:40:56;;;;;;;6.40;4.22;;;;;;;1.62;81.23;98096.91;1737690;82;22050;-58
2022/01/17 02:43:24;;;;;;;5.40;4.05;;;;;;;1.64;81.13;98089.52;1737958;82;21406;-57
2022/01/17 02:48:25;;;;;;;5.55;3.17;;;;;;;1.68;80.96;98084.02;1713287;82;22092;-58
2022/01/17 02:50:52;;;;;;;7.53;3.22;;;;;;;1.68;80.88;98084.83;1714793;82;21012;-57
2022/01/17 02:53:19;;;;;;;5.92;2.85;;;;;;;1.73;80.64;98068.15;1708872;82;21476;-57
2022/01/17 02:55:50;;;;;;;6.40;3.65;;;;;;;1.74;80.59;98076.45;1715828;82;21011;-57
2022/01/17 02:58:19;;;;;;;6.53;4.00;;;;;;;1.72;80.56;98063.84;1714350;82;21055;-57
2022/01/17 03:00:50;;;;;;;25.82;14.47;;;;;;;1.75;80.35;98064.73;1712474;82;20991;-57
2022/01/17 03:11:22;;;;;;;3.80;2.62;;;;;;;1.81;79.83;98021.63;1713097;82;21050;-57
2022/01/17 03:14:07;;;;;;;;;;;;;;;1.84;79.56;98027.84;1715679;82;21060;-57
2022/01/17 03:16:35;;;;;;;6.67;4.67;;;;;;;1.79;79.63;98029.83;1732023;82;20163;-57
2022/01/17 03:19:02;;;;;;;5.35;3.33;;;;;;;1.82;79.56;98048.63;1735647;82;20985;-57
2022/01/17 03:21:32;;;;;;;7.67;4.70;;;;;;;1.87;79.40;98052.77;1717167;82;21002;-57
2022/01/17 03:23:58;;;;;;;5.85;4.53;;;;;;;1.88;79.28;98051.23;1715451;82;21019;-57
2022/01/17 03:26:29;;;;;;;6.70;4.75;;;;;;;1.91;79.17;98048.11;1722995;82;21024;-57
2022/01/17 03:28:53;;;;;;;7.33;3.85;;;;;;;1.94;79.10;98032.14;1733759;82;22916;-58
2022/01/17 03:31:20;;;;;;;7.25;4.17;;;;;;;2.02;78.80;98023.00;1708824;82;20991;-57
2022/01/17 03:33:47;;;;;;;7.25;4.42;;;;;;;2.01;78.74;98036.08;1708509;82;21408;-57
2022/01/17 03:36:15;;;;;;;5.25;3.77;;;;;;;2.02;78.49;98029.69;1727483;82;21067;-57
2022/01/17 03:38:42;;;;;;;6.33;3.58;;;;;;;2.06;78.48;98024.20;1737693;82;21366;-57
2022/01/17 03:41:12;;;;;;;6.92;4.10;;;;;;;2.07;78.27;98026.64;1696944;83;21049;-58
2022/01/17 03:43:38;;;;;;;5.22;3.30;;;;;;;2.14;78.03;98026.05;1732265;82;21008;-57
2022/01/17 03:46:05;;;;;;;6.08;4.08;;;;;;;2.13;77.70;98012.36;1738018;82;21015;-56
2022/01/17 03:48:33;;;;;;;6.72;3.72;;;;;;;2.17;77.61;98018.09;1738014;82;21000;-56
2022/01/17 03:51:01;;;;;;;6.28;3.92;;;;;;;2.16;77.71;98021.80;1731850;82;21409;-57
2022/01/17 03:53:28;;;;;;;4.50;3.20;;;;;;;2.17;77.60;98020.23;1737931;82;21469;-57
2022/01/17 03:55:55;;;;;;;5.60;3.80;;;;;;;2.22;77.33;98017.72;1721690;82;20904;-57
2022/01/17 03:58:22;;;;;;;6.47;3.98;;;;;;;2.24;77.48;98013.47;1713304;82;21412;-57
2022/01/17 04:00:50;;;;;;;6.20;3.50;;;;;;;2.25;77.31;98004.41;1727726;82;21008;-57
2022/01/17 04:03:17;;;;;;;6.37;4.10;;;;;;;2.26;77.21;98008.19;1738136;82;20846;-57
2022/01/17 04:05:44;;;;;;;5.12;3.35;;;;;;;2.29;77.19;97995.39;1723144;82;20947;-56
2022/01/17 04:08:12;;;;;;;5.75;3.75;;;;;;;2.30;77.08;97988.48;1712961;83;21385;-56
2022/01/17 04:10:39;;;;;;;5.85;3.60;;;;;;;2.30;76.92;97992.48;1727719;82;21464;-57
2022/01/17 04:13:07;;;;;;;6.33;3.30;;;;;;;2.31;77.06;97994.15;1737491;82;20901;-57
2022/01/17 04:15:35;;;;;;;6.35;3.80;;;;;;;2.31;77.11;97993.30;1728028;82;21071;-57
2022/01/17 04:18:07;;;;;;;6.28;3.40;;;;;;;2.32;77.12;97991.77;1712413;82;21058;-57
2022/01/17 04:20:34;;;;;;;6.50;3.80;;;;;;;2.31;77.15;97995.48;1721450;82;20937;-57
2022/01/17 04:23:06;;;;;;;6.05;3.70;;;;;;;2.30;77.20;97996.50;1738000;82;22106;-57
2022/01/17 04:25:35;;;;;;;6.45;4.10;;;;;;;2.33;77.18;97997.41;1719728;82;21499;-57
2022/01/17 04:28:04;;;;;;;5.25;3.70;;;;;;;2.29;77.26;97988.71;1713309;82;21460;-57
2022/01/17 04:30:31;;;;;;;;;;;;;;;2.28;77.52;98001.27;1721450;82;21384;-57
2022/01/17 04:32:58;;;;;;;6.37;4.25;;;;;;;2.29;77.55;98001.55;1713555;83;20171;-56
2022/01/17 04:35:26;;;;;;;10.03;4.87;;;;;;;2.27;77.55;98004.98;1713131;82;21407;-57
2022/01/17 04:37:59;;;;;;;7.45;4.35;;;;;;;2.24;77.98;98000.92;1713273;82;21334;-57
2022/01/17 04:40:33;;;;;;;8.30;4.85;;;;;;;2.21;78.19;98001.88;1729079;82;21008;-57
2022/01/17 04:42:56;;;;;;;7.08;4.28;;;;;;;2.18;78.38;98013.03;1737495;82;21012;-58
2022/01/17 04:45:23;;;;;;;8.53;4.33;;;;;;;2.18;78.81;98002.34;1721763;82;20912;-59
2022/01/17 04:47:52;;;;;;;6.95;4.83;;;;;;;2.18;78.78;98007.16;1713519;82;21316;-58
2022/01/17 04:50:22;;;;;;;9.78;4.97;;;;;;;2.17;79.08;98002.05;1699741;82;21028;-58
2022/01/17 04:52:50;;;;;;;6.95;4.67;;;;;;;2.14;79.53;98007.85;1702177;82;21004;-58
2022/01/17 04:55:18;;;;;;;6.85;4.30;;;;;;;2.15;79.33;98006.81;1699552;82;21273;-58
2022/01/17 04:57:46;;;;;;;8.53;4.85;;;;;;;2.16;79.43;98007.09;1713652;82;21038;-58
2022/01/17 05:00:16;;;;;;;11.57;6.12;;;;;;;2.16;79.63;98002.56;1712522;82;21258;-58
2022/01/17 05:02:43;;;;;;;6.67;4.83;;;;;;;2.18;79.59;98000.47;1713450;82;21094;-58
2022/01/17 05:05:11;;;;;;;8.28;5.20;;;;;;;2.16;79.79;98003.09;1713941;82;21017;-58
2022/01/17 05:07:38;;;;;;;6.78;5.20;;;;;;;2.14;79.99;98003.84;1738056;82;20989;-58
2022/01/17 05:10:11;;;;;;;7.40;5.62;;;;;;;2.18;79.97;97996.47;1737775;82;21100;-57
2022/01/17 05:12:38;;;;;;;11.45;5.50;;;;;;;2.13;80.30;97994.98;1737683;82;21397;-58
2022/01/17 05:15:12;;;;;;;6.75;4.67;;;;;;;2.10;80.45;98007.47;1727032;82;21100;-58
2022/01/17 05:17:43;;;;;;;7.40;5.03;;;;;;;2.12;80.56;97994.69;1737624;82;21057;-58
2022/01/17 05:20:07;;;;;;;7.33;5.78;;;;;;;2.14;80.54;98005.18;1729623;82;21066;-58
2022/01/17 05:22:34;;;;;;;8.43;5.15;;;;;;;2.12;80.58;97993.35;1713773;82;20956;-58
2022/01/17 05:25:04;;;;;;;8.65;5.33;;;;;;;2.13;80.32;97989.63;1717007;82;22097;-58
2022/01/17 05:27:31;;;;;;;9.23;4.87;;;;;;;2.14;80.59;97984.61;1712588;82;20983;-58
2022/01/17 05:29:57;;;;;;;10.28;5.42;;;;;;;2.23;80.38;97990.45;1715785;82;21046;-58
2022/01/17 05:32:24;;;;;;;9.38;6.60;;;;;;;2.24;80.10;97986.73;1738119;82;21017;-58
2022/01/17 05:34:51;;;;;;;8.48;5.62;;;;;;;2.20;80.29;97974.84;1723282;82;21522;-58
2022/01/17 05:37:18;;;;;;;7.12;4.15;;;;;;;2.19;80.28;97966.01;1737933;82;21301;-58
2022/01/17 05:39:45;;;;;;;10.68;6.25;;;;;;;2.24;80.06;97944.77;1723455;82;20947;-57
2022/01/17 05:42:17;;;;;;;9.00;5.85;;;;;;;2.23;80.03;97931.62;1738031;82;21079;-58
2022/01/17 05:44:47;;;;;;;5.97;3.70;;;;;;;2.26;79.87;97944.01;1726791;82;21029;-58
2022/01/17 05:47:15;;;;;;;10.72;5.35;;;;;;;2.35;79.65;97948.52;1713015;82;21027;-58
2022/01/17 05:49:42;;;;;;;8.50;5.80;;;;;;;2.33;79.54;97933.22;1727509;82;21014;-57
2022/01/17 05:52:09;;;;;;;9.78;6.58;;;;;;;2.36;79.28;97938.62;1726038;82;21011;-57
2022/01/17 05:54:36;;;;;;;9.75;6.45;;;;;;;2.39;79.09;97934.14;1715843;82;22408;-57
2022/01/17 05:57:04;;;;;;;9.45;5.58;;;;;;;2.44;79.05;97937.77;1735583;82;21456;-58
2022/01/17 05:59:30;;;;;;;11.33;6.42;;;;;;;2.45;78.88;97924.69;1709552;82;21060;-57
2022/01/17 06:01:57;;;;;;;11.03;7.45;;;;;;;2.48;78.79;97936.28;1716732;82;21496;-58
2022/01/17 06:04:24;;;;;;;8.78;5.58;;;;;;;2.52;78.76;97930.75;1700962;82;20929;-57
2022/01/17 06:06:51;;;;;;;15.85;7.92;;;;;;;2.59;78.18;97913.80;1715275;82;20972;-57
2022/01/17 06:09:18;;;;;;;10.40;5.30;;;;;;;2.60;78.05;97918.09;1708238;83;21465;-57
2022/01/17 06:11:45;;;;;;;9.38;5.28;;;;;;;2.63;78.09;97922.45;1728096;82;21414;-57
2022/01/17 06:14:17;;;;;;;8.33;6.20;;;;;;;2.69;77.58;97914.03;1738045;82;21674;-58
2022/01/17 06:16:41;;;;;;;9.70;6.15;;;;;;;2.69;77.58;97902.80;1715722;82;21016;-57
2022/01/17 06:19:08;;;;;;;9.98;6.05;;;;;;;2.73;77.26;97914.66;1713499;82;21030;-57
2022/01/17 06:21:35;;;;;;;11.88;5.97;;;;;;;2.76;77.23;97902.17;1713091;82;21007;-57
2022/01/17 06:24:04;;;;;;;9.38;6.00;;;;;;;2.79;76.94;97911.06;1717123;82;21395;-58
2022/01/17 06:26:33;;;;;;;8.73;5.22;;;;;;;2.81;76.96;97918.86;1702005;82;21005;-57
2022/01/17 06:29:00;;;;;;;10.10;4.62;;;;;;;2.84;76.99;97907.70;1697743;82;20983;-57
2022/01/17 06:31:27;;;;;;;11.08;5.60;;;;;;;2.90;76.42;97893.37;1712989;82;21002;-57
2022/01/17 06:33:54;;;;;;;8.23;5.00;;;;;;;2.94;76.10;97901.77;1708760;83;21394;-57
2022/01/17 06:36:21;;;;;;;9.83;5.72;;;;;;;2.99;76.02;97900.03;1690637;82;20973;-57
2022/01/17 06:38:49;;;;;;;18.92;10.68;;;;;;;3.01;76.04;97901.94;1713522;82;20984;-57
2022/01/17 06:41:17;;;;;;;9.18;5.33;;;;;;;3.03;76.08;97899.83;1732522;82;21036;-57
2022/01/17 06:43:45;;;;;;;7.20;4.12;;;;;;;3.05;75.42;97891.03;1738248;82;21059;-57
2022/01/17 06:46:12;;;;;;;10.88;6.95;;;;;;;3.10;75.29;97887.67;1737533;82;20989;-57
2022/01/17 06:48:39;;;;;;;6.30;4.45;;;;;;;3.09;74.82;97880.17;1734517;82;21327;-57
2022/01/17 06:51:06;;;;;;;10.78;5.97;;;;;;;3.14;74.71;97888.00;1713086;82;21699;-57
2022/01/17 06:53:33;;;;;;;10.88;6.00;;;;;;;3.15;74.35;97882.41;1713114;82;20983;-58
2022/01/17 06:56:00;;;;;;;11.45;5.87;;;;;;;3.17;74.30;97864.27;1726133;82;21048;-57
2022/01/17 06:58:27;;;;;;;11.25;7.42;;;;;;;3.18;74.69;97861.06;1737620;82;20954;-58
2022/01/17 07:00:54;;;;;;;22.40;13.93;;;;;;;3.18;74.37;97858.38;1722949;82;21052;-57
2022/01/17 07:03:21;;;;;;;8.08;6.10;;;;;;;3.18;74.38;97853.03;1720042;82;21089;-56
2022/01/17 07:05:48;;;;;;;11.15;7.15;;;;;;;3.16;74.51;97837.70;1710702;82;21050;-57
2022/01/17 07:08:15;;;;;;;13.93;7.53;;;;;;;3.18;74.53;97843.66;1694808;82;21020;-57
2022/01/17 07:10:42;;;;;;;9.33;5.12;;;;;;;3.20;74.35;97824.14;1703291;82;21531;-57
2022/01/17 07:13:10;;;;;;;9.65;5.83;;;;;;;3.22;74.01;97809.98;1691066;82;21047;-56
2022/01/17 07:15:37;;;;;;;9.55;6.40;;;;;;;3.22;73.94;97811.33;1735435;82;21320;-56
2022/01/17 07:18:04;;;;;;;9.10;5.58;;;;;;;3.25;74.06;97819.72;1724134;82;21017;-56
2022/01/17 07:20:30;;;;;;;10.25;5.37;;;;;;;3.25;73.78;97828.28;1718218;82;21083;-56
2022/01/17 07:22:57;;;;;;;10.32;6.03;;;;;;;3.28;73.85;97849.22;1707474;82;21536;-56
2022/01/17 07:25:24;;;;;;;8.43;5.85;;;;;;;3.30;73.79;97863.17;1714474;82;21107;-55
2022/01/17 07:27:51;;;;;;;8.28;5.25;;;;;;;3.32;73.80;97881.16;1717438;82;21135;-56
2022/01/17 07:30:18;;;;;;;12.10;7.15;;;;;;;3.29;74.03;97877.09;1720031;82;20961;-55
2022/01/17 07:32:45;;;;;;;8.85;5.15;;;;;;;3.32;74.34;97901.24;1716700;82;21129;-57
2022/01/17 07:35:13;;;;;;;10.03;4.55;;;;;;;3.31;74.34;97911.67;1706753;82;21514;-56
2022/01/17 07:37:40;;;;;;;8.33;4.37;;;;;;;3.31;74.49;97908.99;1714877;82;21065;-56
2022/01/17 07:40:08;;;;;;;8.33;4.72;;;;;;;3.27;74.96;97896.61;1718434;82;21264;-56
2022/01/17 07:42:35;;;;;;;10.25;6.25;;;;;;;3.21;75.77;97841.83;1722610;82;20985;-56
2022/01/17 07:45:10;;;;;;;12.85;9.00;;;;;;;3.13;76.01;97843.02;1716786;82;21099;-56
2022/01/17 07:47:44;;;;;;;15.20;8.58;;;;;;;3.02;76.76;97828.61;1716503;82;21008;-56
2022/01/17 07:50:07;;;;;;;7.92;5.42;;;;;;;2.94;76.99;97824.95;1719268;82;21446;-56
2022/01/17 07:52:35;;;;;;;6.62;5.42;;;;;;;2.86;78.21;97825.84;1705784;82;21814;-57
2022/01/17 07:55:04;;;;;;;8.48;5.30;;;;;;;2.78;78.21;97822.47;1702097;82;21446;-57
2022/01/17 07:57:31;;;;;;;8.63;5.50;;;;;;;2.74;78.79;97801.25;1706896;82;22944;-57
2022/01/17 07:59:58;;;;;;;10.93;5.45;;;;;;;2.67;79.06;97797.06;1718179;82;21021;-56
2022/01/17 08:02:24;;;;;;;8.00;5.45;;;;;;;2.65;79.90;97777.73;1721478;82;21166;-56
2022/01/17 08:04:51;;;;;;;11.15;6.05;;;;;;;2.54;80.93;97762.80;1704108;82;21642;-56
2022/01/17 08:07:18;;;;;;;8.53;5.85;;;;;;;2.52;80.36;97756.08;1722681;82;21052;-57
2022/01/17 08:09:45;;;;;;;9.20;6.72;;;;;;;2.52;81.39;97741.36;1715807;82;21060;-55
2022/01/17 08:12:12;;;;;;;12.07;7.37;;;;;;;2.47;81.85;97734.55;1701889;82;21024;-57
2022/01/17 08:14:40;;;;;;;10.38;6.70;;;;;;;2.45;82.15;97729.45;1718475;82;21702;-56
2022/01/17 08:17:07;;;;;;;11.87;7.20;;;;;;;2.46;82.28;97722.23;1712773;82;21485;-56
2022/01/17 08:19:34;;;;;;;13.53;7.12;;;;;;;2.51;82.02;97707.64;1718473;82;21556;-56
2022/01/17 08:22:04;;;;;;;10.48;7.00;;;;;;;2.48;82.64;97699.58;1720159;82;21098;-55
2022/01/17 08:24:31;;;;;;;10.20;6.83;;;;;;;2.49;82.42;97703.88;1730318;82;21016;-56
2022/01/17 08:26:58;;;;;;;6.35;4.45;;;;;;;2.50;82.71;97702.01;1729717;82;21541;-56
2022/01/17 08:29:25;;;;;;;12.33;6.83;;;;;;;2.52;82.68;97695.89;1717371;82;21403;-55
2022/01/17 08:31:52;;;;;;;12.58;7.70;;;;;;;2.51;82.69;97704.97;1698024;82;21118;-56
2022/01/17 08:34:19;;;;;;;10.38;7.40;;;;;;;2.53;82.69;97701.52;1698535;82;21068;-56
2022/01/17 08:36:46;;;;;;;10.90;7.00;;;;;;;2.53;82.69;97706.87;1707411;82;21501;-56
2022/01/17 08:39:14;;;;;;;12.10;7.28;;;;;;;2.59;82.37;97690.42;1699572;82;21051;-57
2022/01/17 08:41:42;;;;;;;10.32;6.50;;;;;;;2.63;82.70;97670.16;1701404;82;22297;-56
2022/01/17 08:44:13;;;;;;;12.43;8.13;;;;;;;2.63;82.82;97648.75;1723677;82;21009;-55
2022/01/17 08:46:40;;;;;;;10.18;6.00;;;;;;;2.67;82.47;97661.95;1703269;82;21088;-56
2022/01/17 08:49:07;;;;;;;11.88;7.53;;;;;;;2.71;82.24;97652.39;1705013;82;21095;-55
2022/01/17 08:51:34;;;;;;;10.08;6.47;;;;;;;2.74;82.17;97651.94;1715480;82;21041;-56
2022/01/17 08:54:01;;;;;;;10.60;6.97;;;;;;;2.75;82.03;97654.89;1710915;82;21032;-56
2022/01/17 08:56:30;;;;;;;8.60;6.00;;;;;;;2.75;81.95;97619.58;1668465;84;21018;-56
2022/01/17 08:58:58;;;;;;;8.83;4.28;;;;;;;2.79;81.89;97623.92;1719667;82;21028;-55
2022/01/17 09:01:25;;;;;;;11.38;5.65;;;;;;;2.86;81.66;97609.88;1718867;82;21354;-56
2022/01/17 09:03:52;;;;;;;11.65;8.00;;;;;;;2.85;81.51;97613.61;1714306;82;21121;-55
2022/01/17 09:06:19;;;;;;;10.82;5.80;;;;;;;2.90;81.26;97612.34;1680247;83;21624;-56
2022/01/17 09:08:46;;;;;;;9.03;5.95;;;;;;;2.97;80.94;97573.38;1724559;82;21483;-56
2022/01/17 09:11:13;;;;;;;15.15;8.28;;;;;;;2.96;80.79;97567.75;1711862;82;21398;-56
2022/01/17 09:13:40;;;;;;;10.95;6.08;;;;;;;3.01;80.64;97582.57;1717226;82;21090;-56
2022/01/17 09:16:08;;;;;;;10.40;5.67;;;;;;;3.06;80.37;97566.05;1716935;82;21004;-55
2022/01/17 09:18:35;;;;;;;11.57;6.55;;;;;;;3.14;80.15;97574.73;1716509;82;21202;-56
2022/01/17 09:21:03;;;;;;;12.28;7.20;;;;;;;3.20;79.74;97571.91;1709481;82;20997;-56
2022/01/17 09:23:30;;;;;;;23.05;12.95;;;;;;;3.31;79.47;97560.83;1718490;82;20980;-56
2022/01/17 09:25:56;;;;;;;44.38;20.32;;;;;;;3.35;79.32;97542.70;1718004;82;21011;-55
2022/01/17 09:28:23;;;;;;;20.08;11.03;;;;;;;3.39;79.44;97551.05;1719659;82;21507;-56
2022/01/17 09:30:51;;;;;;;23.30;12.03;;;;;;;3.44;78.95;97552.47;1723254;82;21084;-56
2022/01/17 09:33:18;;;;;;;41.55;18.87;;;;;;;3.42;78.69;97536.34;1710972;82;21133;-55
2022/01/17 09:35:45;;;;;;;76.00;29.10;;;;;;;3.46;78.73;97545.53;1696525;82;21055;-55
2022/01/17 09:38:12;;;;;;;20.08;10.95;;;;;;;3.54;78.52;97543.77;1724287;82;21083;-56
2022/01/17 09:40:39;;;;;;;86.53;38.63;;;;;;;3.56;78.23;97528.25;1735047;82;21634;-56
2022/01/17 09:43:06;;;;;;;72.32;29.25;;;;;;;3.57;78.59;97519.97;1731515;82;20992;-55
2022/01/17 09:45:33;;;;;;;20.80;9.48;;;;;;;3.63;78.00;97491.38;1725935;82;20965;-56
2022/01/17 09:48:01;;;;;;;75.03;31.52;;;;;;;3.62;77.83;97507.18;1713252;82;21509;-56
2022/01/17 09:50:34;;;;;;;271.00;101.60;;;;;;;3.55;78.14;97524.77;1712720;82;21016;-56
2022/01/17 09:53:01;;;;;;;40.35;18.05;;;;;;;3.57;78.23;97509.25;1711193;82;21066;-55
2022/01/17 09:55:29;;;;;;;149.68;51.05;;;;;;;3.58;77.86;97514.08;1711479;82;21036;-56
2022/01/17 09:58:08;;;;;;;178.53;59.03;;;;;;;3.57;78.17;97508.44;1716333;82;21407;-56
2022/01/17 10:00:41;;;;;;;264.02;89.32;;;;;;;3.52;78.64;97519.10;1694268;82;21437;-55
2022/01/17 10:03:12;;;;;;;115.15;37.60;;;;;;;3.46;79.18;97514.72;1699871;82;20969;-56
2022/01/17 10:05:39;;;;;;;100.72;36.23;;;;;;;3.36;79.95;97492.63;1717247;82;21450;-57
2022/01/17 10:08:15;;;;;;;31.77;11.03;;;;;;;3.32;80.13;97471.39;1711272;82;21408;-56
2022/01/17 10:11:01;;;;;;;172.50;60.52;;;;;;;3.30;80.18;97464.95;1646303;84;21174;-56
2022/01/17 10:13:33;;;;;;;92.62;33.90;;;;;;;3.29;80.72;97486.09;1664607;85;21033;-57
2022/01/17 10:16:15;;;;;;;122.47;45.52;;;;;;;3.28;81.29;97468.94;1722602;82;21649;-56
2022/01/17 10:18:56;;;;;;;109.10;39.63;;;;;;;3.26;81.62;97473.73;1724243;82;21067;-55
2022/01/17 10:21:48;;;;;;;111.92;43.33;;;;;;;3.23;82.40;97471.53;1725892;82;22178;-56
2022/01/17 10:35:22;;;;;;;91.37;40.92;;;;;;;3.04;83.52;97424.14;1721545;82;21834;-55
2022/01/17 10:38:21;;;;;;;48.38;24.52;;;;;;;3.02;83.47;97411.01;1725613;82;21067;-56
2022/01/17 10:41:01;;;;;;;28.00;14.73;;;;;;;3.00;83.92;97412.32;1718551;82;21122;-55
2022/01/17 10:43:38;;;;;;;52.13;27.00;;;;;;;3.00;83.79;97390.91;1712357;82;21067;-55
2022/01/17 10:46:08;;;;;;;23.32;13.58;;;;;;;3.03;84.01;97372.47;1716324;82;21509;-56
2022/01/17 10:48:38;;;;;;;43.87;17.12;;;;;;;3.11;83.47;97374.73;1716749;82;21013;-56
2022/01/17 10:51:06;;;;;;;77.58;29.12;;;;;;;3.11;83.49;97366.70;1712923;82;21024;-56
2022/01/17 10:53:33;;;;;;;164.10;53.73;;;;;;;3.09;83.73;97371.50;1706915;82;21017;-56
2022/01/17 10:56:05;;;;;;;48.68;19.15;;;;;;;3.10;83.75;97376.31;1708939;82;21048;-56
2022/01/17 10:58:29;;;;;;;;;;;;;;;3.08;84.02;97390.48;1699738;82;23044;-57
2022/01/17 11:00:59;;;;;;;50.67;18.82;;;;;;;3.08;84.02;97381.92;1716965;82;21083;-55
2022/01/17 11:03:29;;;;;;;34.48;15.78;;;;;;;3.07;84.16;97374.92;1716122;82;20962;-56
2022/01/17 11:05:58;;;;;;;48.70;19.55;;;;;;;3.04;84.58;97363.91;1716782;82;21024;-55
2022/01/17 11:08:27;;;;;;;43.23;18.30;;;;;;;3.01;84.92;97362.55;1720247;82;20970;-56
2022/01/17 11:10:56;;;;;;;19.23;9.45;;;;;;;3.01;84.88;97375.93;1659136;85;21503;-55
2022/01/17 11:13:27;;;;;;;53.75;24.27;;;;;;;2.97;85.16;97352.04;1714608;82;21056;-56
2022/01/17 11:15:57;;;;;;;42.85;21.33;;;;;;;2.91;85.50;97354.91;1719282;82;21146;-56
2022/01/17 11:18:28;;;;;;;23.62;10.90;;;;;;;2.91;85.91;97350.91;1719885;82;21127;-56
2022/01/17 11:21:11;;;;;;;9.35;5.53;;;;;;;2.92;85.94;97365.37;1713287;82;21135;-56
2022/01/17 11:23:37;;;;;;;15.05;7.80;;;;;;;2.91;86.03;97359.73;1714825;82;21595;-56
2022/01/17 11:26:05;;;;;;;12.00;6.83;;;;;;;2.92;85.92;97343.95;1717413;82;21043;-56
2022/01/17 11:28:36;;;;;;;7.83;4.15;;;;;;;2.88;86.16;97349.50;1719536;82;21114;-57
2022/01/17 11:31:06;;;;;;;10.82;6.60;;;;;;;2.83;86.27;97339.56;1717965;82;21063;-56
2022/01/17 11:33:34;;;;;;;11.93;8.28;;;;;;;2.79;86.41;97349.12;1720512;82;21555;-55
2022/01/17 11:36:01;;;;;;;9.75;6.10;;;;;;;2.78;86.30;97356.86;1713508;82;21499;-55
2022/01/17 11:38:35;;;;;;;5.75;3.70;;;;;;;2.76;86.88;97345.61;1705065;82;21181;-56
2022/01/17 11:41:03;;;;;;;9.13;6.83;;;;;;;2.75;86.75;97329.27;1696936;82;21032;-56
2022/01/17 11:43:35;;;;;;;9.48;6.58;;;;;;;2.77;86.49;97349.90;1734078;82;21150;-56
2022/01/17 11:46:19;;;;;;;8.15;7.35;;;;;;;2.71;87.12;97339.36;1717895;82;21455;-57
2022/01/17 11:48:56;;;;;;;7.55;4.92;;;;;;;2.68;87.35;97364.75;1708082;82;21039;-56
2022/01/17 11:51:23;;;;;;;8.20;4.97;;;;;;;2.72;87.31;97365.05;1703867;82;21707;-55
2022/01/17 11:53:52;;;;;;;51.28;27.00;;;;;;;2.73;87.59;97371.49;1712031;82;21064;-56
2022/01/17 11:56:58;;;;;;;28.52;14.35;;;;;;;2.78;87.62;97367.57;1702707;82;21130;-55
2022/01/17 11:59:42;;;;;;;16.65;7.30;;;;;;;2.81;87.52;97363.58;1715826;82;21034;-57
2022/01/17 12:02:27;;;;;;;61.55;23.92;;;;;;;2.83;87.62;97362.30;1722551;82;21467;-57
2022/01/17 12:05:11;;;;;;;32.53;14.95;;;;;;;2.84;87.51;97349.73;1703221;82;21044;-57
2022/01/17 12:07:51;;;;;;;19.82;10.93;;;;;;;2.86;87.36;97356.98;1719776;82;21161;-57
2022/01/17 12:10:22;;;;;;;26.37;15.25;;;;;;;2.99;86.91;97345.09;1718243;82;21047;-57
2022/01/17 12:13:17;;;;;;;33.13;18.07;;;;;;;2.89;87.07;97350.31;1718508;80;21053;-57
2022/01/17 12:16:30;;;;;;;57.45;27.48;;;;;;;2.85;87.59;97349.20;1709710;82;21115;-57
2022/01/17 12:19:04;;;;;;;20.77;9.98;;;;;;;2.85;87.63;97333.95;1730563;82;21886;-57
2022/01/17 12:21:44;;;;;;;13.53;6.67;;;;;;;2.93;87.46;97320.68;1709717;82;21024;-57